Time;durP1;ratioP1;P1;durP2;ratioP2;P2;SDS_P1;SDS_P2;PMS_P1;PMS_P2;Temp;Humidity;BMP_temperature;BMP_pressure;BME280_temperature;BME280_humidity;BME280_pressure;Samples;Min_cycle;Max_cycle;Signal;HPM_P1;HPM_P2
2023/12/19 00:01:50;;;;;;;1.00;1.00;;;-1.30;99.90;;;;;;5034693;28;20625;-81
2023/12/19 00:04:15;;;;;;;0.93;0.93;;;-1.30;99.90;;;;;;5034208;28;20854;-81
2023/12/19 00:06:41;;;;;;;0.90;0.90;;;-1.30;99.90;;;;;;5034723;28;20192;-81
2023/12/19 00:09:06;;;;;;;0.90;0.90;;;-1.30;99.90;;;;;;5035921;28;20266;-81
2023/12/19 00:11:33;;;;;;;0.93;0.93;;;-1.30;99.90;;;;;;5034391;28;20187;-81
2023/12/19 00:13:59;;;;;;;1.00;1.00;;;-1.20;99.90;;;;;;5034659;28;20176;-79
2023/12/19 00:16:25;;;;;;;0.80;0.80;;;-1.20;99.90;;;;;;5035768;28;20562;-80
2023/12/19 00:18:50;;;;;;;0.80;0.80;;;-1.10;99.90;;;;;;5036855;28;20175;-81
2023/12/19 00:21:16;;;;;;;1.00;1.00;;;-1.20;99.90;;;;;;5035371;28;20644;-79
2023/12/19 00:23:41;;;;;;;0.90;0.90;;;-1.30;99.90;;;;;;5036676;28;20306;-81
2023/12/19 00:26:07;;;;;;;0.90;0.90;;;-1.40;99.90;;;;;;5036622;28;20218;-80
2023/12/19 00:28:32;;;;;;;0.90;0.90;;;-1.40;99.90;;;;;;5036278;28;20202;-80
2023/12/19 00:30:58;;;;;;;0.80;0.80;;;-1.40;99.90;;;;;;5035778;28;20665;-80
2023/12/19 00:33:23;;;;;;;0.90;0.90;;;-1.30;99.90;;;;;;5034508;28;20172;-80
2023/12/19 00:35:50;;;;;;;0.87;0.87;;;-1.20;99.90;;;;;;5036195;28;20204;-80
2023/12/19 00:38:16;;;;;;;0.90;0.90;;;-1.20;99.90;;;;;;5037344;28;20179;-80
2023/12/19 00:40:42;;;;;;;0.90;0.90;;;-1.30;99.90;;;;;;5037620;28;20267;-80
2023/12/19 00:43:07;;;;;;;0.90;0.90;;;-1.50;99.90;;;;;;5036915;28;20207;-79
2023/12/19 00:45:33;;;;;;;0.90;0.90;;;-1.70;99.90;;;;;;5038631;28;20175;-79
2023/12/19 00:47:59;;;;;;;0.90;0.90;;;-1.60;99.90;;;;;;5044394;28;20156;-78
2023/12/19 00:50:24;;;;;;;0.90;0.90;;;-1.60;99.90;;;;;;5050425;28;20195;-80
2023/12/19 00:52:50;;;;;;;0.90;0.90;;;-1.40;99.90;;;;;;5037746;28;20214;-80
2023/12/19 00:55:15;;;;;;;0.90;0.90;;;-1.40;99.90;;;;;;5036223;28;20199;-80
2023/12/19 00:57:41;;;;;;;0.80;0.80;;;-1.50;99.90;;;;;;5036875;28;20183;-80
2023/12/19 01:00:07;;;;;;;1.00;1.00;;;-1.60;99.90;;;;;;5052501;28;20290;-78
2023/12/19 01:02:32;;;;;;;0.90;0.90;;;-1.40;99.90;;;;;;5050326;28;20286;-80
2023/12/19 01:04:58;;;;;;;0.90;0.90;;;-1.20;99.90;;;;;;5038421;28;20684;-81
2023/12/19 01:07:24;;;;;;;0.90;0.90;;;-1.00;99.90;;;;;;5037249;28;20257;-81
2023/12/19 01:09:50;;;;;;;0.93;0.93;;;-1.10;99.90;;;;;;5038735;28;20180;-81
2023/12/19 01:12:15;;;;;;;1.00;1.00;;;-1.10;99.90;;;;;;5037309;28;20176;-80
2023/12/19 01:14:42;;;;;;;0.93;0.93;;;-1.10;99.90;;;;;;5037710;28;20599;-80
2023/12/19 01:17:07;;;;;;;0.87;0.87;;;-1.10;99.90;;;;;;5037231;28;20203;-80
2023/12/19 01:19:33;;;;;;;0.87;0.87;;;-1.10;99.90;;;;;;5037412;28;20180;-79
2023/12/19 01:21:59;;;;;;;0.90;0.90;;;-1.20;99.90;;;;;;5035932;28;20179;-80
2023/12/19 01:24:24;;;;;;;0.97;0.97;;;-1.30;99.90;;;;;;5036300;28;20226;-80
2023/12/19 01:26:51;;;;;;;0.80;0.80;;;-1.20;99.90;;;;;;5033954;28;20250;-80
2023/12/19 01:29:20;;;;;;;0.90;0.90;;;-1.20;99.90;;;;;;5036070;28;20302;-81
2023/12/19 01:31:46;;;;;;;0.90;0.90;;;-1.20;99.90;;;;;;5038558;28;20194;-80
2023/12/19 01:34:12;;;;;;;0.90;0.90;;;-1.10;99.90;;;;;;5036430;28;20235;-80
2023/12/19 01:36:41;;;;;;;0.80;0.80;;;-1.10;99.90;;;;;;5035822;28;20199;-81
2023/12/19 01:39:12;;;;;;;0.80;0.80;;;-1.30;99.90;;;;;;5037114;28;20176;-80
2023/12/19 01:41:37;;;;;;;0.90;0.90;;;-1.30;99.90;;;;;;5035799;28;20255;-80
2023/12/19 01:44:03;;;;;;;0.90;0.90;;;-1.30;99.90;;;;;;5035499;28;20294;-80
2023/12/19 01:46:29;;;;;;;0.90;0.90;;;-1.20;99.90;;;;;;5035137;28;20208;-80
2023/12/19 01:48:54;;;;;;;0.80;0.80;;;-1.30;99.90;;;;;;5035967;28;20275;-80
2023/12/19 01:51:20;;;;;;;1.00;1.00;;;-1.40;99.90;;;;;;5035907;28;20184;-80
2023/12/19 01:53:49;;;;;;;0.80;0.80;;;-1.40;99.90;;;;;;5035312;28;20183;-80
2023/12/19 01:56:19;;;;;;;0.90;0.90;;;-1.40;99.90;;;;;;5034421;28;20282;-80
2023/12/19 01:58:46;;;;;;;0.87;0.87;;;-1.50;99.90;;;;;;5035200;28;20656;-80
2023/12/19 02:01:12;;;;;;;0.80;0.80;;;-1.50;99.90;;;;;;5034246;28;20199;-81
2023/12/19 02:03:39;;;;;;;0.90;0.90;;;-1.60;99.90;;;;;;5034866;28;20211;-80
2023/12/19 02:06:06;;;;;;;0.80;0.80;;;-1.80;99.90;;;;;;5034340;28;20245;-80
2023/12/19 02:08:33;;;;;;;0.90;0.90;;;-1.80;99.90;;;;;;5033197;28;20207;-80
2023/12/19 02:10:59;;;;;;;0.80;0.80;;;-1.80;99.90;;;;;;5035149;28;20179;-80
2023/12/19 02:13:24;;;;;;;0.80;0.80;;;-1.70;99.90;;;;;;5035862;28;20172;-81
2023/12/19 02:15:51;;;;;;;0.87;0.87;;;-1.70;99.90;;;;;;5036442;28;20228;-81
2023/12/19 02:18:19;;;;;;;1.00;1.00;;;-1.70;99.90;;;;;;5036794;28;20198;-79
2023/12/19 02:20:44;;;;;;;0.90;0.90;;;-1.70;99.90;;;;;;5052172;28;20191;-79
2023/12/19 02:23:11;;;;;;;0.80;0.80;;;-1.70;99.90;;;;;;5052616;28;20214;-79
2023/12/19 02:25:38;;;;;;;0.83;0.83;;;-1.70;99.90;;;;;;5052257;28;20183;-81
2023/12/19 02:28:04;;;;;;;0.80;0.80;;;-1.70;99.90;;;;;;5039154;28;20168;-81
2023/12/19 02:30:30;;;;;;;0.90;0.90;;;-1.70;99.90;;;;;;5038144;28;20183;-81
2023/12/19 02:32:58;;;;;;;0.80;0.80;;;-1.70;99.90;;;;;;5038464;28;20230;-81
2023/12/19 02:35:24;;;;;;;0.80;0.80;;;-1.70;99.90;;;;;;5037208;28;20164;-81
2023/12/19 02:37:50;;;;;;;0.90;0.90;;;-1.80;99.90;;;;;;5036280;28;20178;-81
2023/12/19 02:40:16;;;;;;;0.90;0.90;;;-1.70;99.90;;;;;;5037408;28;20549;-80
2023/12/19 02:42:42;;;;;;;0.90;0.90;;;-1.80;99.90;;;;;;5037291;28;20187;-80
2023/12/19 02:45:10;;;;;;;0.90;0.90;;;-1.80;99.90;;;;;;5036554;28;20168;-81
2023/12/19 02:47:35;;;;;;;0.90;0.90;;;-1.80;99.90;;;;;;5037433;28;20223;-81
2023/12/19 02:50:01;;;;;;;0.90;0.90;;;-2.00;99.90;;;;;;5036494;28;20179;-81
2023/12/19 02:52:26;;;;;;;0.80;0.80;;;-2.00;99.90;;;;;;5037346;28;20176;-81
2023/12/19 02:54:52;;;;;;;0.90;0.90;;;-1.90;99.90;;;;;;5036236;28;20176;-81
2023/12/19 02:57:17;;;;;;;0.90;0.90;;;-1.90;99.90;;;;;;5035291;28;20188;-81
2023/12/19 02:59:43;;;;;;;0.90;0.90;;;-1.90;99.90;;;;;;5036031;28;20719;-81
2023/12/19 03:02:09;;;;;;;0.80;0.80;;;-1.90;99.90;;;;;;5034334;28;20179;-80
2023/12/19 03:04:34;;;;;;;0.90;0.90;;;-2.10;99.90;;;;;;5035256;28;20207;-80
2023/12/19 03:07:01;;;;;;;0.80;0.80;;;-2.20;99.90;;;;;;5035966;28;20208;-80
2023/12/19 03:09:26;;;;;;;0.90;0.90;;;-2.40;99.90;;;;;;5036196;28;20203;-80
2023/12/19 03:12:06;;;;;;;0.90;0.90;;;-2.30;99.90;;;;;;5035049;28;20183;-81
2023/12/19 03:14:33;;;;;;;0.90;0.90;;;-2.10;99.90;;;;;;5034829;28;20225;-80
2023/12/19 03:16:59;;;;;;;0.90;0.90;;;-2.00;99.90;;;;;;5035106;28;20200;-80
2023/12/19 03:19:25;;;;;;;0.80;0.80;;;-2.00;99.90;;;;;;5035020;28;20176;-80
2023/12/19 03:21:50;;;;;;;0.80;0.80;;;-1.90;99.90;;;;;;5034611;28;20190;-80
2023/12/19 03:24:16;;;;;;;0.90;0.90;;;-1.90;99.90;;;;;;5033680;28;20206;-80
2023/12/19 03:26:41;;;;;;;0.90;0.90;;;-2.10;99.90;;;;;;5034438;28;20541;-81
2023/12/19 03:29:07;;;;;;;0.80;0.80;;;-2.20;99.90;;;;;;5035993;28;20604;-81
2023/12/19 03:31:33;;;;;;;0.90;0.90;;;-2.30;99.90;;;;;;5037944;28;20179;-79
2023/12/19 03:34:01;;;;;;;0.90;0.90;;;-2.10;99.90;;;;;;5057000;28;20171;-78
2023/12/19 03:36:26;;;;;;;0.90;0.90;;;-1.90;99.90;;;;;;5041191;28;20200;-81
2023/12/19 03:38:52;;;;;;;0.90;0.90;;;-1.80;99.90;;;;;;5037737;28;20266;-81
2023/12/19 03:41:17;;;;;;;1.03;1.03;;;-1.90;99.90;;;;;;5036550;28;20183;-80
2023/12/19 03:43:43;;;;;;;1.00;1.00;;;-1.90;99.90;;;;;;5031854;28;20286;-80
2023/12/19 03:46:09;;;;;;;0.80;0.80;;;-2.00;99.90;;;;;;5031990;28;20196;-80
2023/12/19 03:48:34;;;;;;;0.90;0.90;;;-2.00;99.90;;;;;;5032613;28;20184;-80
2023/12/19 03:51:00;;;;;;;0.90;0.90;;;-2.10;99.90;;;;;;5032394;28;20677;-79
2023/12/19 03:53:27;;;;;;;0.90;0.90;;;-2.00;99.90;;;;;;5031488;28;20275;-80
2023/12/19 03:55:52;;;;;;;0.80;0.80;;;-2.00;99.90;;;;;;5032603;28;20196;-80
2023/12/19 03:58:18;;;;;;;0.90;0.90;;;-2.00;99.90;;;;;;5033369;28;20264;-80
2023/12/19 04:00:44;;;;;;;0.90;0.90;;;-2.00;99.90;;;;;;5034001;28;20183;-80
2023/12/19 04:03:09;;;;;;;0.90;0.90;;;-2.10;99.90;;;;;;5033995;28;20246;-80
2023/12/19 04:05:35;;;;;;;0.93;0.93;;;-2.10;99.90;;;;;;5033763;28;20241;-80
2023/12/19 04:08:00;;;;;;;1.00;1.00;;;-2.20;99.90;;;;;;5033514;28;20270;-80
2023/12/19 04:10:26;;;;;;;0.80;0.80;;;-2.20;99.90;;;;;;5034435;28;20182;-80
2023/12/19 04:12:51;;;;;;;0.80;0.80;;;-2.20;99.90;;;;;;5036331;28;20171;-78
2023/12/19 04:15:17;;;;;;;1.00;1.00;;;-2.20;99.90;;;;;;5038898;28;20199;-80
2023/12/19 04:17:42;;;;;;;0.80;0.80;;;-2.20;99.90;;;;;;5037677;28;20172;-80
2023/12/19 04:20:10;;;;;;;0.83;0.83;;;-2.20;99.90;;;;;;5037605;28;20175;-80
2023/12/19 04:22:36;;;;;;;0.90;0.90;;;-2.20;99.90;;;;;;5038016;28;20184;-80
2023/12/19 04:25:01;;;;;;;1.00;1.00;;;-2.20;99.90;;;;;;5027422;28;20203;-80
2023/12/19 04:27:27;;;;;;;0.90;0.90;;;-2.20;99.90;;;;;;5027598;28;20189;-79
2023/12/19 04:29:55;;;;;;;0.90;0.90;;;-2.20;99.90;;;;;;5024565;28;20719;-79
2023/12/19 04:32:21;;;;;;;0.90;0.90;;;-2.40;99.90;;;;;;5017756;28;20193;-80
2023/12/19 04:34:46;;;;;;;0.90;0.90;;;-2.50;99.90;;;;;;5014695;28;20177;-79
2023/12/19 04:37:12;;;;;;;0.80;0.80;;;-2.40;99.90;;;;;;5015977;28;20196;-81
2023/12/19 04:39:37;;;;;;;1.00;1.00;;;-2.40;99.90;;;;;;5023150;28;20300;-80
2023/12/19 04:42:07;;;;;;;0.87;0.87;;;-2.40;99.90;;;;;;5026038;28;20203;-79
2023/12/19 04:44:33;;;;;;;0.80;0.80;;;-2.40;99.90;;;;;;5033691;28;20305;-81
2023/12/19 04:46:59;;;;;;;0.80;0.80;;;-2.30;99.90;;;;;;5033543;28;20192;-80
2023/12/19 04:49:25;;;;;;;0.80;0.80;;;-2.50;99.90;;;;;;5029186;28;20180;-80
2023/12/19 04:51:52;;;;;;;0.90;0.90;;;-2.60;99.90;;;;;;5018631;28;20217;-80
2023/12/19 04:54:17;;;;;;;1.00;1.00;;;-2.60;99.90;;;;;;5026271;28;20272;-80
2023/12/19 04:56:43;;;;;;;0.90;0.90;;;-2.50;99.90;;;;;;5024811;28;20649;-79
2023/12/19 04:59:08;;;;;;;0.90;0.90;;;-2.50;99.90;;;;;;5027052;28;20215;-79
2023/12/19 05:01:34;;;;;;;0.90;0.90;;;-2.50;99.90;;;;;;5027932;28;20322;-80
2023/12/19 05:04:00;;;;;;;0.90;0.90;;;-2.40;99.90;;;;;;5037987;28;20199;-80
2023/12/19 05:06:25;;;;;;;0.90;0.90;;;-2.30;99.90;;;;;;5036919;28;20575;-81
2023/12/19 05:08:51;;;;;;;0.90;0.90;;;-2.40;99.90;;;;;;5020148;28;20618;-81
2023/12/19 05:11:16;;;;;;;0.80;0.80;;;-2.40;99.90;;;;;;5018273;28;20328;-81
2023/12/19 05:13:42;;;;;;;0.87;0.87;;;-2.40;99.90;;;;;;5019853;28;20173;-81
2023/12/19 05:16:15;;;;;;;0.90;0.90;;;-2.40;99.90;;;;;;5034758;28;20196;-82
2023/12/19 05:18:41;;;;;;;0.87;0.87;;;-2.40;99.90;;;;;;5055597;28;20171;-79
2023/12/19 05:21:08;;;;;;;1.00;1.00;;;-2.40;99.90;;;;;;5056745;28;20191;-79
2023/12/19 05:23:39;;;;;;;0.80;0.80;;;-2.40;99.90;;;;;;5057026;28;20235;-79
2023/12/19 05:26:05;;;;;;;0.90;0.90;;;-2.40;99.90;;;;;;5055980;28;20542;-79
2023/12/19 05:28:32;;;;;;;0.80;0.80;;;-2.30;99.90;;;;;;5058803;28;20175;-79
2023/12/19 05:30:57;;;;;;;0.90;0.90;;;-2.30;99.90;;;;;;5040141;28;20172;-80
2023/12/19 05:33:33;;;;;;;0.80;0.80;;;-2.10;99.90;;;;;;5037454;28;20234;-80
2023/12/19 05:35:58;;;;;;;0.87;0.87;;;-2.10;99.90;;;;;;5037438;28;20285;-80
2023/12/19 05:38:24;;;;;;;0.87;0.87;;;-2.30;99.90;;;;;;5037652;28;20649;-80
2023/12/19 05:40:51;;;;;;;0.90;0.90;;;-2.30;99.90;;;;;;5037236;28;20732;-80
2023/12/19 05:43:17;;;;;;;0.90;0.90;;;-2.30;99.90;;;;;;5036713;28;20210;-80
2023/12/19 05:45:43;;;;;;;0.80;0.80;;;-2.20;99.90;;;;;;5036636;28;20223;-80
2023/12/19 05:48:08;;;;;;;0.90;0.90;;;-2.30;99.90;;;;;;5049982;28;20191;-80
2023/12/19 05:50:34;;;;;;;0.80;0.80;;;-2.30;99.90;;;;;;5058666;28;20190;-77
2023/12/19 05:53:00;;;;;;;0.90;0.90;;;-2.40;99.90;;;;;;5057576;28;20172;-80
2023/12/19 05:55:25;;;;;;;0.80;0.80;;;-2.40;99.90;;;;;;5042954;28;20183;-81
2023/12/19 05:57:51;;;;;;;0.90;0.90;;;-2.40;99.90;;;;;;5037428;28;20178;-81
2023/12/19 06:00:17;;;;;;;0.80;0.80;;;-2.30;99.90;;;;;;5037039;28;20214;-81
2023/12/19 06:02:44;;;;;;;0.80;0.80;;;-2.40;99.90;;;;;;5036857;28;20176;-81
2023/12/19 06:05:09;;;;;;;0.90;0.90;;;-2.40;99.90;;;;;;5037057;28;20210;-81
2023/12/19 06:07:36;;;;;;;0.80;0.80;;;-2.50;99.90;;;;;;5036586;28;20207;-82
2023/12/19 06:10:08;;;;;;;0.90;0.90;;;-2.60;99.90;;;;;;5058755;28;20184;-80
2023/12/19 06:12:34;;;;;;;0.90;0.90;;;-2.60;99.90;;;;;;5047677;28;20592;-81
2023/12/19 06:15:00;;;;;;;0.93;0.93;;;-2.60;99.90;;;;;;5037633;28;20211;-81
2023/12/19 06:17:25;;;;;;;0.80;0.80;;;-2.60;99.90;;;;;;5038236;28;20200;-81
2023/12/19 06:19:51;;;;;;;0.90;0.90;;;-2.70;99.90;;;;;;5037902;28;20206;-82
2023/12/19 06:22:17;;;;;;;0.90;0.90;;;-2.60;99.90;;;;;;5038544;28;20241;-81
2023/12/19 06:24:42;;;;;;;0.90;0.90;;;-2.50;99.90;;;;;;5037736;28;20206;-80
2023/12/19 06:27:08;;;;;;;0.90;0.90;;;-2.50;99.90;;;;;;5038143;28;20237;-81
2023/12/19 06:29:34;;;;;;;0.83;0.83;;;-2.40;99.90;;;;;;5036658;28;20646;-81
2023/12/19 06:31:59;;;;;;;0.87;0.87;;;-2.50;99.90;;;;;;5036497;28;20206;-81
2023/12/19 06:34:28;;;;;;;0.90;0.90;;;-2.60;99.90;;;;;;5036850;28;20680;-81
2023/12/19 06:36:54;;;;;;;1.00;1.00;;;-2.60;99.90;;;;;;5036371;28;20685;-81
2023/12/19 06:39:20;;;;;;;0.90;0.90;;;-2.60;99.90;;;;;;5032356;28;20175;-81
2023/12/19 06:41:45;;;;;;;1.00;1.00;;;-2.80;99.90;;;;;;5033590;28;20168;-81
2023/12/19 06:44:12;;;;;;;0.90;0.90;;;-2.90;99.90;;;;;;5034855;28;20291;-81
2023/12/19 06:46:38;;;;;;;0.90;0.90;;;-2.90;99.90;;;;;;5034721;28;20192;-80
2023/12/19 06:49:04;;;;;;;0.90;0.90;;;-2.80;99.90;;;;;;5035544;28;20214;-82
2023/12/19 06:51:31;;;;;;;0.90;0.90;;;-2.80;99.90;;;;;;5035622;28;20233;-81
2023/12/19 06:53:57;;;;;;;0.93;0.93;;;-2.80;99.90;;;;;;5033246;28;20168;-81
2023/12/19 06:56:26;;;;;;;0.83;0.83;;;-2.70;99.90;;;;;;5033705;28;20197;-81
2023/12/19 06:58:53;;;;;;;0.90;0.90;;;-2.60;99.90;;;;;;5016988;28;20180;-81
2023/12/19 07:01:20;;;;;;;0.90;0.90;;;-2.80;99.90;;;;;;5016210;28;20337;-81
2023/12/19 07:03:46;;;;;;;0.83;0.83;;;-2.30;99.90;;;;;;5016276;28;20207;-82
2023/12/19 07:06:15;;;;;;;0.90;0.90;;;-2.80;99.90;;;;;;5017494;28;20212;-81
2023/12/19 07:08:41;;;;;;;0.90;0.90;;;-2.70;99.90;;;;;;5014378;28;20234;-81
2023/12/19 07:11:07;;;;;;;1.00;1.00;;;-2.70;99.90;;;;;;5013250;28;20173;-81
2023/12/19 07:13:32;;;;;;;0.90;0.90;;;-2.70;99.90;;;;;;5014509;28;20183;-81
2023/12/19 07:15:58;;;;;;;0.90;0.90;;;-2.70;99.90;;;;;;5013839;28;20192;-81
2023/12/19 07:18:24;;;;;;;0.90;0.90;;;-2.60;99.90;;;;;;5015084;28;20173;-81
2023/12/19 07:20:49;;;;;;;0.90;0.90;;;-2.50;99.90;;;;;;5014124;28;20172;-81
2023/12/19 07:23:15;;;;;;;0.90;0.90;;;-2.60;99.90;;;;;;5016066;28;20211;-82
2023/12/19 07:25:41;;;;;;;1.00;1.00;;;-2.70;99.90;;;;;;5015640;28;20193;-81
2023/12/19 07:28:07;;;;;;;0.90;0.90;;;-2.70;99.90;;;;;;5025893;28;20637;-81
2023/12/19 07:30:32;;;;;;;0.90;0.90;;;-2.50;99.90;;;;;;5033210;28;20179;-82
2023/12/19 07:32:59;;;;;;;0.90;0.90;;;-2.30;99.90;;;;;;5034233;28;20175;-82
2023/12/19 07:35:25;;;;;;;0.90;0.90;;;-2.20;99.90;;;;;;5032101;28;20180;-81
2023/12/19 07:37:51;;;;;;;0.90;0.90;;;-1.40;99.90;;;;;;5033429;28;20271;-82
2023/12/19 07:40:17;;;;;;;0.90;0.90;;;-0.50;99.90;;;;;;5033289;28;20674;-81
2023/12/19 07:42:44;;;;;;;0.90;0.90;;;-0.10;73.40;;;;;;5033123;28;20180;-81
2023/12/19 07:45:12;;;;;;;0.90;0.90;;;0.10;1.00;;;;;;5032882;28;20199;-81
2023/12/19 07:47:38;;;;;;;0.80;0.80;;;0.10;1.00;;;;;;5032286;28;20259;-82
2023/12/19 07:50:05;;;;;;;0.87;0.87;;;0.70;1.00;;;;;;5035475;28;20192;-82
2023/12/19 07:52:31;;;;;;;0.77;0.77;;;0.90;99.90;;;;;;5034141;28;20191;-80
2023/12/19 07:54:56;;;;;;;0.70;0.70;;;1.80;99.90;;;;;;5048221;28;20202;-80
2023/12/19 07:57:22;;;;;;;0.70;0.70;;;2.50;5.80;;;;;;5040009;28;20207;-82
2023/12/19 07:59:48;;;;;;;0.60;0.60;;;2.30;1.00;;;;;;5038123;28;20180;-82
2023/12/19 08:02:14;;;;;;;0.70;0.70;;;3.00;1.00;;;;;;5037397;28;20184;-80
2023/12/19 08:04:42;;;;;;;0.60;0.60;;;3.10;1.00;;;;;;5036041;28;20230;-82
2023/12/19 08:07:07;;;;;;;0.57;0.57;;;3.30;1.00;;;;;;5034816;28;20202;-82
2023/12/19 08:09:33;;;;;;;0.67;0.67;;;3.50;99.90;;;;;;5035986;28;20199;-81
2023/12/19 08:11:59;;;;;;;0.60;0.60;;;3.50;1.00;;;;;;5036884;28;20263;-81
2023/12/19 08:14:24;;;;;;;0.70;0.70;;;4.00;62.40;;;;;;5036188;28;20674;-82
2023/12/19 08:16:50;;;;;;;0.60;0.60;;;4.60;1.00;;;;;;5036841;28;20196;-83
2023/12/19 08:19:18;;;;;;;0.70;0.70;;;5.20;1.00;;;;;;5037123;28;20179;-82
2023/12/19 08:21:50;;;;;;;0.70;0.70;;;5.30;1.00;;;;;;5036505;28;20178;-83
2023/12/19 08:24:16;;;;;;;0.70;0.70;;;5.40;1.00;;;;;;5036087;28;20210;-82
2023/12/19 08:26:49;;;;;;;0.60;0.60;;;5.60;99.90;;;;;;5035811;28;20195;-82
2023/12/19 08:29:15;;;;;;;0.73;0.73;;;5.70;1.00;;;;;;5036131;28;20520;-82
2023/12/19 08:31:41;;;;;;;0.70;0.70;;;4.10;1.00;;;;;;5035952;28;20234;-81
2023/12/19 08:34:07;;;;;;;0.70;0.70;;;3.10;1.00;;;;;;5035645;28;20180;-81
2023/12/19 08:36:33;;;;;;;0.70;0.70;;;2.80;1.00;;;;;;5036437;28;20210;-82
2023/12/19 08:39:00;;;;;;;0.70;0.70;;;2.90;99.90;;;;;;5040502;28;20188;-81
2023/12/19 08:41:25;;;;;;;0.70;0.70;;;3.30;99.90;;;;;;5042417;28;20187;-81
2023/12/19 08:43:52;;;;;;;0.60;0.60;;;3.50;99.90;;;;;;5038371;28;20215;-81
2023/12/19 08:46:18;;;;;;;0.70;0.70;;;3.80;82.90;;;;;;5040237;28;20708;-81
2023/12/19 08:48:43;;;;;;;0.50;0.50;;;4.30;99.90;;;;;;5038887;28;20230;-83
2023/12/19 08:51:10;;;;;;;0.50;0.50;;;4.10;99.90;;;;;;5040564;28;20172;-82
2023/12/19 08:53:36;;;;;;;0.40;0.40;;;4.10;1.00;;;;;;5040204;28;20179;-81
2023/12/19 08:56:02;;;;;;;0.43;0.43;;;4.80;99.90;;;;;;5038573;28;20200;-82
2023/12/19 08:58:27;;;;;;;0.50;0.50;;;5.20;99.90;;;;;;5039921;28;20506;-80
2023/12/19 09:00:54;;;;;;;0.60;0.60;;;6.30;99.90;;;;;;5038649;28;20263;-82
2023/12/19 09:03:20;;;;;;;0.40;0.40;;;7.60;21.50;;;;;;5037093;28;20214;-82
2023/12/19 09:05:46;;;;;;;0.30;0.30;;;7.90;1.00;;;;;;5036955;28;20195;-81
2023/12/19 09:08:12;;;;;;;0.40;0.40;;;7.70;1.00;;;;;;5037854;28;20180;-82
2023/12/19 09:10:38;;;;;;;0.40;0.40;;;8.20;1.00;;;;;;5039919;28;20179;-81
2023/12/19 09:13:05;;;;;;;0.30;0.30;;;9.50;1.00;;;;;;5037951;28;20231;-83
2023/12/19 09:15:30;;;;;;;0.30;0.30;;;10.20;1.00;;;;;;5038535;28;20172;-83
2023/12/19 09:17:56;;;;;;;0.40;0.40;;;10.60;1.00;;;;;;5036964;28;20180;-83
2023/12/19 09:20:23;;;;;;;0.30;0.30;;;10.40;1.00;;;;;;5038215;28;20260;-82
2023/12/19 09:22:49;;;;;;;0.40;0.40;;;10.50;1.00;;;;;;5055514;28;20184;-81
2023/12/19 09:25:15;;;;;;;0.30;0.30;;;10.10;1.00;;;;;;5054176;28;20294;-84
2023/12/19 09:27:45;;;;;;;0.30;0.30;;;11.40;1.00;;;;;;5041829;28;20213;-85
2023/12/19 09:30:11;;;;;;;0.30;0.30;;;12.10;1.00;;;;;;5039834;28;20297;-84
2023/12/19 09:32:40;;;;;;;0.33;0.33;;;12.20;1.00;;;;;;5040713;28;20183;-83
2023/12/19 09:35:07;;;;;;;0.40;0.40;;;12.40;1.00;;;;;;5035508;28;20645;-83
2023/12/19 09:37:33;;;;;;;0.40;0.40;;;12.50;1.00;;;;;;5035214;28;20357;-83
2023/12/19 09:39:59;;;;;;;0.50;0.50;;;12.60;1.00;;;;;;5037510;28;20657;-84
2023/12/19 09:42:25;;;;;;;0.50;0.50;;;12.90;1.00;;;;;;5037106;28;20230;-83
2023/12/19 09:44:51;;;;;;;0.37;0.37;;;13.50;1.00;;;;;;5055278;28;20601;-82
2023/12/19 09:47:27;;;;;;;0.40;0.40;;;13.40;1.00;;;;;;5038725;28;20211;-84
2023/12/19 09:50:00;;;;;;;0.40;0.40;;;13.00;1.00;;;;;;5040089;28;20233;-84
2023/12/19 09:52:26;;;;;;;0.47;0.47;;;12.50;1.00;;;;;;5039711;28;20187;-84
2023/12/19 09:54:52;;;;;;;0.50;0.50;;;12.20;1.00;;;;;;5039929;28;20191;-82
2023/12/19 09:57:20;;;;;;;0.40;0.40;;;12.00;1.00;;;;;;5038462;28;20719;-83
2023/12/19 09:59:47;;;;;;;0.50;0.50;;;11.40;1.00;;;;;;5038301;28;20188;-84
2023/12/19 10:02:17;;;;;;;0.40;0.40;;;11.70;1.00;;;;;;5038163;28;20680;-82
2023/12/19 10:04:45;;;;;;;0.43;0.43;;;11.80;1.00;;;;;;5037738;28;20203;-84
2023/12/19 10:07:11;;;;;;;0.40;0.40;;;12.30;1.00;;;;;;5038967;28;20196;-84
2023/12/19 10:09:56;;;;;;;0.30;0.30;;;11.40;1.00;;;;;;5037990;28;20196;-83
2023/12/19 10:12:27;;;;;;;0.30;0.30;;;10.10;1.00;;;;;;5040924;28;20183;-83
2023/12/19 10:15:08;;;;;;;0.40;0.40;;;9.50;1.00;;;;;;5039128;28;20204;-84
2023/12/19 10:17:34;;;;;;;0.40;0.40;;;8.00;1.00;;;;;;5047416;28;20212;-83
2023/12/19 10:20:09;;;;;;;0.50;0.50;;;7.20;1.00;;;;;;5050958;28;20186;-81
2023/12/19 10:22:35;;;;;;;0.40;0.40;;;6.70;13.40;;;;;;5051384;28;20233;-82
2023/12/19 10:25:00;;;;;;;0.60;0.60;;;6.20;99.90;;;;;;5046421;28;20212;-83
2023/12/19 10:27:26;;;;;;;0.50;0.50;;;5.90;99.90;;;;;;5013829;28;20201;-82
2023/12/19 10:29:51;;;;;;;0.50;0.50;;;5.20;1.00;;;;;;5017708;28;20279;-82
2023/12/19 10:32:19;;;;;;;0.70;0.70;;;4.90;1.00;;;;;;5016844;28;20749;-84
2023/12/19 10:34:46;;;;;;;0.60;0.60;;;5.10;1.00;;;;;;5014739;28;20183;-81
2023/12/19 10:37:14;;;;;;;0.70;0.70;;;4.70;1.00;;;;;;5013902;28;20200;-82
2023/12/19 10:39:44;;;;;;;0.80;0.80;;;4.70;99.90;;;;;;5030462;28;20241;-83
2023/12/19 10:42:10;;;;;;;0.80;0.80;;;4.60;1.00;;;;;;5038133;28;20176;-83
2023/12/19 10:44:40;;;;;;;0.70;0.70;;;4.20;1.00;;;;;;5034681;28;20208;-82
2023/12/19 10:47:13;;;;;;;0.60;0.60;;;4.30;99.40;;;;;;5034343;28;20564;-81
2023/12/19 10:49:40;;;;;;;0.60;0.60;;;4.30;99.90;;;;;;5033419;28;20176;-81
2023/12/19 10:52:08;;;;;;;0.73;0.73;;;4.00;99.90;;;;;;5037203;28;20259;-81
2023/12/19 10:54:40;;;;;;;0.70;0.70;;;3.60;96.40;;;;;;5036913;28;20176;-82
2023/12/19 10:57:18;;;;;;;0.63;0.63;;;3.20;1.00;;;;;;5034958;28;20192;-82
2023/12/19 10:59:50;;;;;;;0.70;0.70;;;3.30;1.00;;;;;;5034801;28;20241;-82
2023/12/19 11:02:37;;;;;;;0.80;0.80;;;3.20;1.00;;;;;;5035528;28;20168;-81
2023/12/19 11:05:30;;;;;;;0.70;0.70;;;3.50;99.90;;;;;;5051496;28;20203;-80
2023/12/19 11:08:02;;;;;;;0.80;0.80;;;3.50;99.90;;;;;;5052109;28;20168;-80
2023/12/19 11:10:32;;;;;;;0.70;0.70;;;3.60;1.00;;;;;;5052406;28;20175;-80
2023/12/19 11:12:58;;;;;;;0.90;0.90;;;3.70;1.00;;;;;;5049429;28;20176;-83
2023/12/19 11:15:25;;;;;;;0.70;0.70;;;4.50;1.00;;;;;;5034868;28;20186;-81
2023/12/19 11:18:04;;;;;;;0.70;0.70;;;4.50;1.00;;;;;;5038248;28;20271;-81
2023/12/19 11:20:47;;;;;;;0.70;0.70;;;4.40;1.00;;;;;;5037700;28;20203;-81
2023/12/19 11:23:21;;;;;;;0.80;0.80;;;4.00;1.00;;;;;;5035043;28;20243;-81
2023/12/19 11:26:13;;;;;;;0.70;0.70;;;3.90;1.00;;;;;;5035868;28;20198;-81
2023/12/19 11:28:40;;;;;;;0.70;0.70;;;4.00;1.00;;;;;;5037117;28;20176;-82
2023/12/19 11:31:28;;;;;;;0.70;0.70;;;3.60;99.90;;;;;;5036747;28;20175;-81
2023/12/19 11:33:54;;;;;;;0.70;0.70;;;3.50;1.00;;;;;;5035072;28;20175;-80
2023/12/19 11:36:21;;;;;;;0.70;0.70;;;3.90;99.90;;;;;;5035025;28;20202;-82
2023/12/19 11:38:49;;;;;;;0.70;0.70;;;4.40;1.00;;;;;;5011340;28;20565;-81
2023/12/19 11:41:37;;;;;;;0.77;0.77;;;4.30;1.00;;;;;;5032258;28;20184;-80
2023/12/19 11:44:02;;;;;;;0.80;0.80;;;4.30;1.00;;;;;;5013248;28;20221;-82
2023/12/19 11:46:28;;;;;;;0.77;0.77;;;4.60;99.90;;;;;;5012641;28;20562;-81
2023/12/19 11:48:55;;;;;;;0.70;0.70;;;4.40;1.00;;;;;;5013841;28;20184;-80
2023/12/19 11:51:50;;;;;;;0.70;0.70;;;4.40;1.00;;;;;;5012767;28;20188;-82
2023/12/19 11:54:15;;;;;;;0.73;0.73;;;4.70;1.00;;;;;;5013094;28;20194;-83
2023/12/19 11:56:42;;;;;;;0.80;0.80;;;4.50;1.00;;;;;;5013417;28;20192;-80
2023/12/19 11:59:11;;;;;;;0.80;0.80;;;4.20;99.90;;;;;;5024090;28;20184;-80
2023/12/19 12:01:41;;;;;;;0.80;0.80;;;4.00;1.00;;;;;;5037896;28;20489;-80
2023/12/19 12:04:10;;;;;;;0.70;0.70;;;3.80;99.90;;;;;;5056474;28;20211;-80
2023/12/19 12:06:36;;;;;;;0.80;0.80;;;4.10;1.00;;;;;;5056950;28;20184;-80
2023/12/19 12:09:05;;;;;;;0.90;0.90;;;4.10;1.00;;;;;;5054977;28;20186;-81
2023/12/19 12:11:45;;;;;;;0.80;0.80;;;4.50;1.00;;;;;;5055504;28;20171;-80
2023/12/19 12:14:10;;;;;;;0.70;0.70;;;4.80;1.00;;;;;;5057668;28;20160;-80
2023/12/19 12:16:37;;;;;;;0.70;0.70;;;5.60;99.90;;;;;;5056862;28;20195;-80
2023/12/19 12:19:09;;;;;;;0.70;0.70;;;5.50;99.90;;;;;;5051947;28;20213;-82
2023/12/19 12:21:35;;;;;;;0.70;0.70;;;5.30;99.90;;;;;;5038810;28;20245;-83
2023/12/19 12:24:01;;;;;;;0.70;0.70;;;5.80;1.00;;;;;;5042026;28;20661;-82
2023/12/19 12:26:27;;;;;;;0.80;0.80;;;6.00;99.90;;;;;;5043451;28;20198;-80
2023/12/19 12:28:53;;;;;;;0.80;0.80;;;5.90;93.70;;;;;;5059931;28;20172;-80
2023/12/19 12:31:18;;;;;;;0.70;0.70;;;6.20;1.00;;;;;;5050014;28;20191;-85
2023/12/19 12:33:44;;;;;;;0.73;0.73;;;6.20;1.00;;;;;;5040452;28;20183;-82
2023/12/19 12:36:11;;;;;;;0.70;0.70;;;5.60;99.90;;;;;;5039988;28;20231;-85
2023/12/19 12:38:37;;;;;;;0.70;0.70;;;5.60;99.90;;;;;;5031388;28;20646;-85
2023/12/19 12:41:04;;;;;;;0.70;0.70;;;5.70;1.00;;;;;;5032780;28;20176;-84
2023/12/19 12:43:34;;;;;;;0.70;0.70;;;5.60;99.90;;;;;;5034443;28;20202;-86
2023/12/19 12:46:13;;;;;;;0.70;0.70;;;5.40;1.00;;;;;;5036041;28;20196;-85
2023/12/19 12:48:44;;;;;;;0.70;0.70;;;6.10;15.60;;;;;;5030623;28;20176;-85
2023/12/19 12:51:10;;;;;;;0.70;0.70;;;5.90;1.00;;;;;;5031963;28;20187;-85
2023/12/19 12:53:36;;;;;;;0.70;0.70;;;5.60;99.90;;;;;;5030902;28;20529;-84